sensor_id;sensor_type;location;lat;lon;timestamp;pressure;altitude;pressure_sealevel;temperature;humidity
72210;BME280;60113;48.762;12.302;2023-05-01T00:00:41;97274.09;;;3.78;68.41
72210;BME280;60113;48.762;12.302;2023-05-01T00:03:07;97273.25;;;3.77;71.12
72210;BME280;60113;48.762;12.302;2023-05-01T00:05:33;97268.88;;;3.78;76.34
72210;BME280;60113;48.762;12.302;2023-05-01T00:07:58;97267.81;;;3.82;71.09
72210;BME280;60113;48.762;12.302;2023-05-01T00:10:24;97260.03;;;3.82;66.59
72210;BME280;60113;48.762;12.302;2023-05-01T00:12:49;97259.72;;;3.88;71.47
72210;BME280;60113;48.762;12.302;2023-05-01T00:15:15;97256.81;;;3.94;70.76
72210;BME280;60113;48.762;12.302;2023-05-01T00:17:40;97252.84;;;4.05;69.16
72210;BME280;60113;48.762;12.302;2023-05-01T00:20:06;97254.84;;;4.17;74.26
72210;BME280;60113;48.762;12.302;2023-05-01T00:22:32;97251.84;;;4.25;66.01
72210;BME280;60113;48.762;12.302;2023-05-01T00:24:58;97254.00;;;4.34;67.15
72210;BME280;60113;48.762;12.302;2023-05-01T00:27:23;97252.94;;;4.38;71.23
72210;BME280;60113;48.762;12.302;2023-05-01T00:29:49;97249.25;;;4.43;68.25
72210;BME280;60113;48.762;12.302;2023-05-01T00:32:15;97247.56;;;4.42;66.47
72210;BME280;60113;48.762;12.302;2023-05-01T00:34:40;97246.03;;;4.37;66.52
72210;BME280;60113;48.762;12.302;2023-05-01T00:37:06;97251.47;;;4.33;66.03
72210;BME280;60113;48.762;12.302;2023-05-01T00:39:31;97245.81;;;4.24;67.41
72210;BME280;60113;48.762;12.302;2023-05-01T00:41:57;97246.94;;;4.19;68.36
72210;BME280;60113;48.762;12.302;2023-05-01T00:44:22;97246.53;;;4.10;69.08
72210;BME280;60113;48.762;12.302;2023-05-01T00:46:48;97233.97;;;4.01;68.78
72210;BME280;60113;48.762;12.302;2023-05-01T00:49:13;97234.34;;;3.93;68.62
72210;BME280;60113;48.762;12.302;2023-05-01T00:51:39;97224.25;;;3.87;69.17
72210;BME280;60113;48.762;12.302;2023-05-01T00:54:05;97219.34;;;3.81;69.27
72210;BME280;60113;48.762;12.302;2023-05-01T00:56:30;97224.00;;;3.74;71.26
72210;BME280;60113;48.762;12.302;2023-05-01T00:58:56;97226.97;;;3.66;71.23
72210;BME280;60113;48.762;12.302;2023-05-01T01:01:22;97211.81;;;3.57;71.72
72210;BME280;60113;48.762;12.302;2023-05-01T01:03:48;97222.59;;;3.49;67.81
72210;BME280;60113;48.762;12.302;2023-05-01T01:06:32;97209.88;;;3.43;68.00
72210;BME280;60113;48.762;12.302;2023-05-01T01:11:55;97207.13;;;3.28;72.09
72210;BME280;60113;48.762;12.302;2023-05-01T01:14:32;97193.72;;;3.18;72.24
72210;BME280;60113;48.762;12.302;2023-05-01T01:17:12;97198.44;;;3.10;70.29
72210;BME280;60113;48.762;12.302;2023-05-01T01:22:22;97192.91;;;2.98;72.69
72210;BME280;60113;48.762;12.302;2023-05-01T01:25:28;97191.44;;;2.93;77.15
72210;BME280;60113;48.762;12.302;2023-05-01T01:34:13;97191.50;;;2.72;74.32
72210;BME280;60113;48.762;12.302;2023-05-01T01:39:41;97183.50;;;2.57;71.76
72210;BME280;60113;48.762;12.302;2023-05-01T01:42:10;97188.97;;;2.51;69.54
72210;BME280;60113;48.762;12.302;2023-05-01T01:44:46;97177.88;;;2.47;70.97
72210;BME280;60113;48.762;12.302;2023-05-01T01:47:14;97178.94;;;2.43;74.94
72210;BME280;60113;48.762;12.302;2023-05-01T01:49:47;97167.06;;;2.37;69.52
72210;BME280;60113;48.762;12.302;2023-05-01T01:52:15;97170.63;;;2.35;68.22
72210;BME280;60113;48.762;12.302;2023-05-01T01:54:45;97169.03;;;2.32;72.04
72210;BME280;60113;48.762;12.302;2023-05-01T01:57:15;97166.50;;;2.31;74.09
72210;BME280;60113;48.762;12.302;2023-05-01T01:59:41;97166.63;;;2.28;69.03
72210;BME280;60113;48.762;12.302;2023-05-01T02:02:08;97158.84;;;2.28;74.23
72210;BME280;60113;48.762;12.302;2023-05-01T02:04:37;97162.47;;;2.23;77.68
72210;BME280;60113;48.762;12.302;2023-05-01T02:07:05;97163.47;;;2.21;75.15
72210;BME280;60113;48.762;12.302;2023-05-01T02:09:31;97167.84;;;2.19;71.27
72210;BME280;60113;48.762;12.302;2023-05-01T02:11:59;97167.16;;;2.15;71.88
72210;BME280;60113;48.762;12.302;2023-05-01T02:14:28;97158.72;;;2.10;68.50
72210;BME280;60113;48.762;12.302;2023-05-01T02:16:54;97163.19;;;2.06;69.15
72210;BME280;60113;48.762;12.302;2023-05-01T02:19:22;97153.81;;;2.04;75.46
72210;BME280;60113;48.762;12.302;2023-05-01T02:21:49;97146.09;;;2.02;77.73
72210;BME280;60113;48.762;12.302;2023-05-01T02:24:16;97153.13;;;2.00;75.28
72210;BME280;60113;48.762;12.302;2023-05-01T02:26:49;97145.19;;;2.03;74.24
72210;BME280;60113;48.762;12.302;2023-05-01T02:29:16;97142.53;;;2.05;74.85
72210;BME280;60113;48.762;12.302;2023-05-01T02:31:41;97128.69;;;2.06;73.05
72210;BME280;60113;48.762;12.302;2023-05-01T02:34:06;97129.56;;;2.05;71.49
72210;BME280;60113;48.762;12.302;2023-05-01T02:36:32;97139.19;;;2.03;73.23
72210;BME280;60113;48.762;12.302;2023-05-01T02:38:59;97135.81;;;2.00;73.26
72210;BME280;60113;48.762;12.302;2023-05-01T02:41:25;97128.09;;;1.99;74.12
72210;BME280;60113;48.762;12.302;2023-05-01T02:43:56;97124.69;;;1.98;75.21
72210;BME280;60113;48.762;12.302;2023-05-01T02:46:24;97124.75;;;1.97;74.33
72210;BME280;60113;48.762;12.302;2023-05-01T02:48:52;97117.84;;;1.96;74.15
72210;BME280;60113;48.762;12.302;2023-05-01T02:51:19;97117.16;;;1.92;74.73
72210;BME280;60113;48.762;12.302;2023-05-01T02:53:45;97117.38;;;1.87;76.99
72210;BME280;60113;48.762;12.302;2023-05-01T02:56:11;97108.94;;;1.82;76.13
72210;BME280;60113;48.762;12.302;2023-05-01T02:58:37;97115.16;;;1.78;75.46
72210;BME280;60113;48.762;12.302;2023-05-01T03:01:02;97110.94;;;1.75;75.93
72210;BME280;60113;48.762;12.302;2023-05-01T03:03:28;97117.94;;;1.73;73.33
72210;BME280;60113;48.762;12.302;2023-05-01T03:05:54;97105.94;;;1.71;75.16
72210;BME280;60113;48.762;12.302;2023-05-01T03:08:19;97094.03;;;1.67;74.57
72210;BME280;60113;48.762;12.302;2023-05-01T03:10:45;97100.97;;;1.66;74.55
72210;BME280;60113;48.762;12.302;2023-05-01T03:13:10;97102.00;;;1.62;74.38
72210;BME280;60113;48.762;12.302;2023-05-01T03:15:36;97106.47;;;1.58;74.67
72210;BME280;60113;48.762;12.302;2023-05-01T03:18:02;97102.25;;;1.56;74.76
72210;BME280;60113;48.762;12.302;2023-05-01T03:20:28;97102.41;;;1.53;74.89
72210;BME280;60113;48.762;12.302;2023-05-01T03:22:55;97095.59;;;1.50;75.34
72210;BME280;60113;48.762;12.302;2023-05-01T03:25:21;97095.59;;;1.50;77.88
72210;BME280;60113;48.762;12.302;2023-05-01T03:27:47;97098.25;;;1.48;77.21
72210;BME280;60113;48.762;12.302;2023-05-01T03:30:13;97088.84;;;1.46;76.86
72210;BME280;60113;48.762;12.302;2023-05-01T03:32:39;97098.44;;;1.44;78.93
72210;BME280;60113;48.762;12.302;2023-05-01T03:35:05;97093.41;;;1.41;76.49
72210;BME280;60113;48.762;12.302;2023-05-01T03:37:31;97094.28;;;1.40;76.99
72210;BME280;60113;48.762;12.302;2023-05-01T03:39:58;97092.59;;;1.39;73.69
72210;BME280;60113;48.762;12.302;2023-05-01T03:42:23;97095.19;;;1.39;77.14
72210;BME280;60113;48.762;12.302;2023-05-01T03:44:49;97090.75;;;1.42;77.83
72210;BME280;60113;48.762;12.302;2023-05-01T03:47:14;97088.16;;;1.42;71.77
72210;BME280;60113;48.762;12.302;2023-05-01T03:49:40;97091.50;;;1.44;72.72
72210;BME280;60113;48.762;12.302;2023-05-01T03:52:08;97079.47;;;1.43;65.76
72210;BME280;60113;48.762;12.302;2023-05-01T03:54:33;97089.63;;;1.48;67.22
72210;BME280;60113;48.762;12.302;2023-05-01T03:56:59;97079.88;;;1.55;75.64
72210;BME280;60113;48.762;12.302;2023-05-01T03:59:25;97078.88;;;1.57;80.76
72210;BME280;60113;48.762;12.302;2023-05-01T04:01:51;97077.97;;;1.58;78.32
72210;BME280;60113;48.762;12.302;2023-05-01T04:04:16;97078.75;;;1.60;75.52
72210;BME280;60113;48.762;12.302;2023-05-01T04:06:42;97082.13;;;1.62;76.80
72210;BME280;60113;48.762;12.302;2023-05-01T04:09:08;97077.72;;;1.65;74.89
72210;BME280;60113;48.762;12.302;2023-05-01T04:11:33;97074.16;;;1.67;73.59
72210;BME280;60113;48.762;12.302;2023-05-01T04:13:59;97078.44;;;1.68;68.46
72210;BME280;60113;48.762;12.302;2023-05-01T04:16:24;97076.69;;;1.69;72.08
72210;BME280;60113;48.762;12.302;2023-05-01T04:18:50;97074.94;;;1.69;68.13
72210;BME280;60113;48.762;12.302;2023-05-01T04:21:16;97074.88;;;1.71;70.57
72210;BME280;60113;48.762;12.302;2023-05-01T04:23:43;97068.72;;;1.73;81.66
72210;BME280;60113;48.762;12.302;2023-05-01T04:26:08;97068.00;;;1.70;81.39
72210;BME280;60113;48.762;12.302;2023-05-01T04:28:34;97068.06;;;1.68;77.54
72210;BME280;60113;48.762;12.302;2023-05-01T04:30:59;97063.03;;;1.65;79.13
72210;BME280;60113;48.762;12.302;2023-05-01T04:33:25;97055.25;;;1.65;76.18
72210;BME280;60113;48.762;12.302;2023-05-01T04:35:52;97054.28;;;1.68;74.18
72210;BME280;60113;48.762;12.302;2023-05-01T04:38:18;97051.47;;;1.72;76.51
72210;BME280;60113;48.762;12.302;2023-05-01T04:40:43;97052.00;;;1.81;76.19
72210;BME280;60113;48.762;12.302;2023-05-01T04:43:09;97045.63;;;1.88;75.71
72210;BME280;60113;48.762;12.302;2023-05-01T04:45:37;97046.94;;;1.98;76.58
72210;BME280;60113;48.762;12.302;2023-05-01T04:48:02;97041.66;;;2.19;79.51
72210;BME280;60113;48.762;12.302;2023-05-01T04:50:28;97046.16;;;2.35;76.99
72210;BME280;60113;48.762;12.302;2023-05-01T04:52:54;97049.03;;;2.48;76.76
72210;BME280;60113;48.762;12.302;2023-05-01T04:55:20;97057.06;;;2.61;75.50
72210;BME280;60113;48.762;12.302;2023-05-01T04:57:45;97060.91;;;2.71;74.68
72210;BME280;60113;48.762;12.302;2023-05-01T05:00:11;97072.47;;;2.83;77.56
72210;BME280;60113;48.762;12.302;2023-05-01T05:02:37;97069.44;;;2.93;77.51
72210;BME280;60113;48.762;12.302;2023-05-01T05:05:03;97080.06;;;3.06;76.40
72210;BME280;60113;48.762;12.302;2023-05-01T05:07:28;97080.31;;;3.19;78.42
72210;BME280;60113;48.762;12.302;2023-05-01T05:09:54;97077.97;;;3.32;76.48
72210;BME280;60113;48.762;12.302;2023-05-01T05:12:20;97071.06;;;3.48;81.20
72210;BME280;60113;48.762;12.302;2023-05-01T05:14:45;97072.06;;;3.63;85.92
72210;BME280;60113;48.762;12.302;2023-05-01T05:17:12;97074.88;;;3.77;82.81
72210;BME280;60113;48.762;12.302;2023-05-01T05:19:37;97071.41;;;3.94;76.14
72210;BME280;60113;48.762;12.302;2023-05-01T05:22:02;97066.22;;;4.10;77.18
72210;BME280;60113;48.762;12.302;2023-05-01T05:24:28;97067.16;;;4.25;72.96
72210;BME280;60113;48.762;12.302;2023-05-01T05:26:54;97067.13;;;4.43;84.39
72210;BME280;60113;48.762;12.302;2023-05-01T05:29:20;97065.94;;;4.48;77.41
72210;BME280;60113;48.762;12.302;2023-05-01T05:31:46;97065.25;;;4.61;69.66
72210;BME280;60113;48.762;12.302;2023-05-01T05:34:12;97059.28;;;4.75;76.55
72210;BME280;60113;48.762;12.302;2023-05-01T05:36:38;97065.31;;;4.92;79.81
72210;BME280;60113;48.762;12.302;2023-05-01T05:39:03;97062.34;;;5.14;80.26
72210;BME280;60113;48.762;12.302;2023-05-01T05:41:29;97064.09;;;5.44;77.65
72210;BME280;60113;48.762;12.302;2023-05-01T05:43:54;97064.00;;;5.77;77.99
72210;BME280;60113;48.762;12.302;2023-05-01T05:46:20;97064.66;;;6.09;76.99
72210;BME280;60113;48.762;12.302;2023-05-01T05:48:45;97062.13;;;6.52;74.74
72210;BME280;60113;48.762;12.302;2023-05-01T05:51:11;97069.41;;;6.88;76.92
72210;BME280;60113;48.762;12.302;2023-05-01T05:53:36;97065.59;;;7.07;77.49
72210;BME280;60113;48.762;12.302;2023-05-01T05:56:02;97060.53;;;7.19;73.39
72210;BME280;60113;48.762;12.302;2023-05-01T05:58:27;97066.09;;;7.40;72.17
72210;BME280;60113;48.762;12.302;2023-05-01T06:00:53;97065.72;;;7.59;73.74
72210;BME280;60113;48.762;12.302;2023-05-01T06:03:20;97062.50;;;7.69;74.75
72210;BME280;60113;48.762;12.302;2023-05-01T06:05:46;97065.53;;;7.75;72.75
72210;BME280;60113;48.762;12.302;2023-05-01T06:08:12;97059.97;;;7.80;73.01
72210;BME280;60113;48.762;12.302;2023-05-01T06:10:41;97049.84;;;7.88;72.58
72210;BME280;60113;48.762;12.302;2023-05-01T06:13:07;97053.72;;;8.09;74.02
72210;BME280;60113;48.762;12.302;2023-05-01T06:15:35;97050.81;;;8.38;74.60
72210;BME280;60113;48.762;12.302;2023-05-01T06:18:01;97047.84;;;8.69;73.15
72210;BME280;60113;48.762;12.302;2023-05-01T06:20:27;97046.91;;;8.94;71.52
72210;BME280;60113;48.762;12.302;2023-05-01T06:22:52;97043.50;;;9.05;71.21
72210;BME280;60113;48.762;12.302;2023-05-01T06:25:18;97043.06;;;9.11;71.12
72210;BME280;60113;48.762;12.302;2023-05-01T06:27:43;97032.72;;;9.21;70.78
72210;BME280;60113;48.762;12.302;2023-05-01T06:30:09;97041.72;;;9.42;70.47
72210;BME280;60113;48.762;12.302;2023-05-01T06:32:35;97036.53;;;9.65;69.00
72210;BME280;60113;48.762;12.302;2023-05-01T06:35:00;97035.63;;;9.88;68.83
72210;BME280;60113;48.762;12.302;2023-05-01T06:37:26;97031.66;;;10.17;68.39
72210;BME280;60113;48.762;12.302;2023-05-01T06:39:51;97038.59;;;10.41;66.95
72210;BME280;60113;48.762;12.302;2023-05-01T06:42:17;97026.31;;;10.53;63.13
72210;BME280;60113;48.762;12.302;2023-05-01T06:44:42;97033.81;;;10.58;65.78
72210;BME280;60113;48.762;12.302;2023-05-01T06:47:08;97033.22;;;10.66;66.19
72210;BME280;60113;48.762;12.302;2023-05-01T06:49:34;97030.56;;;10.77;66.26
72210;BME280;60113;48.762;12.302;2023-05-01T06:51:59;97023.97;;;10.83;64.51
72210;BME280;60113;48.762;12.302;2023-05-01T06:54:25;97027.88;;;10.88;64.45
72210;BME280;60113;48.762;12.302;2023-05-01T06:56:52;97028.09;;;10.97;64.21
72210;BME280;60113;48.762;12.302;2023-05-01T06:59:18;97024.34;;;11.11;65.04
72210;BME280;60113;48.762;12.302;2023-05-01T07:01:43;97029.69;;;11.21;63.20
72210;BME280;60113;48.762;12.302;2023-05-01T07:04:09;97025.53;;;11.40;65.02
72210;BME280;60113;48.762;12.302;2023-05-01T07:06:35;97028.59;;;11.66;64.98
72210;BME280;60113;48.762;12.302;2023-05-01T07:09:00;97027.56;;;12.00;64.72
72210;BME280;60113;48.762;12.302;2023-05-01T07:11:26;97024.91;;;12.31;64.59
72210;BME280;60113;48.762;12.302;2023-05-01T07:13:52;97014.59;;;12.59;63.75
72210;BME280;60113;48.762;12.302;2023-05-01T07:16:18;97013.94;;;12.87;66.28
72210;BME280;60113;48.762;12.302;2023-05-01T07:18:43;97010.63;;;12.95;57.51
72210;BME280;60113;48.762;12.302;2023-05-01T07:21:09;97009.78;;;13.04;62.88
72210;BME280;60113;48.762;12.302;2023-05-01T07:23:36;97005.66;;;13.11;61.62
72210;BME280;60113;48.762;12.302;2023-05-01T07:26:02;97013.25;;;12.95;62.49
72210;BME280;60113;48.762;12.302;2023-05-01T07:28:28;97013.94;;;12.87;58.14
72210;BME280;60113;48.762;12.302;2023-05-01T07:30:54;97019.50;;;12.94;63.07
72210;BME280;60113;48.762;12.302;2023-05-01T07:33:19;97017.84;;;13.03;63.08
72210;BME280;60113;48.762;12.302;2023-05-01T07:35:45;97017.56;;;13.16;63.37
72210;BME280;60113;48.762;12.302;2023-05-01T07:38:10;97014.38;;;13.32;63.03
72210;BME280;60113;48.762;12.302;2023-05-01T07:40:36;97015.34;;;13.50;61.71
72210;BME280;60113;48.762;12.302;2023-05-01T07:43:02;97014.78;;;13.67;59.31
72210;BME280;60113;48.762;12.302;2023-05-01T07:45:28;97009.44;;;13.86;62.96
72210;BME280;60113;48.762;12.302;2023-05-01T07:47:53;97011.97;;;14.16;63.37
72210;BME280;60113;48.762;12.302;2023-05-01T07:50:19;97009.34;;;14.44;62.12
72210;BME280;60113;48.762;12.302;2023-05-01T07:52:45;97006.06;;;14.60;59.82
72210;BME280;60113;48.762;12.302;2023-05-01T07:55:11;97009.97;;;14.74;59.90
72210;BME280;60113;48.762;12.302;2023-05-01T07:57:36;97010.41;;;14.98;63.44
72210;BME280;60113;48.762;12.302;2023-05-01T08:00:03;97000.66;;;15.17;62.38
72210;BME280;60113;48.762;12.302;2023-05-01T08:02:29;97008.97;;;15.22;61.18
72210;BME280;60113;48.762;12.302;2023-05-01T08:04:54;97001.63;;;15.34;60.46
72210;BME280;60113;48.762;12.302;2023-05-01T08:07:20;97004.69;;;15.47;60.36
72210;BME280;60113;48.762;12.302;2023-05-01T08:09:45;97007.63;;;15.62;58.34
72210;BME280;60113;48.762;12.302;2023-05-01T08:12:11;97007.59;;;15.81;55.80
72210;BME280;60113;48.762;12.302;2023-05-01T08:14:37;97008.75;;;15.86;58.90
72210;BME280;60113;48.762;12.302;2023-05-01T08:17:03;97011.94;;;15.90;58.98
72210;BME280;60113;48.762;12.302;2023-05-01T08:19:28;97000.59;;;15.98;59.34
72210;BME280;60113;48.762;12.302;2023-05-01T08:21:53;97002.94;;;16.09;59.57
72210;BME280;60113;48.762;12.302;2023-05-01T08:24:19;97003.25;;;16.06;55.91
72210;BME280;60113;48.762;12.302;2023-05-01T08:26:45;97007.59;;;16.07;59.51
72210;BME280;60113;48.762;12.302;2023-05-01T08:29:11;97001.28;;;16.08;59.36
72210;BME280;60113;48.762;12.302;2023-05-01T08:31:37;96999.81;;;16.14;58.90
72210;BME280;60113;48.762;12.302;2023-05-01T08:34:04;97005.66;;;16.18;58.35
72210;BME280;60113;48.762;12.302;2023-05-01T08:36:30;96995.41;;;16.23;56.94
72210;BME280;60113;48.762;12.302;2023-05-01T08:38:57;96991.59;;;16.25;56.35
72210;BME280;60113;48.762;12.302;2023-05-01T08:41:22;96996.84;;;16.17;58.45
72210;BME280;60113;48.762;12.302;2023-05-01T08:43:48;96997.38;;;16.21;57.54
72210;BME280;60113;48.762;12.302;2023-05-01T08:46:28;96992.94;;;16.30;51.73
72210;BME280;60113;48.762;12.302;2023-05-01T08:48:58;96994.78;;;16.29;56.88
72210;BME280;60113;48.762;12.302;2023-05-01T08:51:25;96984.81;;;16.23;57.24
72210;BME280;60113;48.762;12.302;2023-05-01T08:53:52;96987.56;;;16.13;52.99
72210;BME280;60113;48.762;12.302;2023-05-01T08:56:20;96994.53;;;16.14;53.74
72210;BME280;60113;48.762;12.302;2023-05-01T08:58:48;96994.03;;;16.10;57.56
72210;BME280;60113;48.762;12.302;2023-05-01T09:01:15;96986.34;;;15.99;52.34
72210;BME280;60113;48.762;12.302;2023-05-01T09:03:42;96987.84;;;16.02;55.11
72210;BME280;60113;48.762;12.302;2023-05-01T09:06:10;96982.91;;;15.80;52.76
72210;BME280;60113;48.762;12.302;2023-05-01T09:08:35;96989.13;;;15.71;55.92
72210;BME280;60113;48.762;12.302;2023-05-01T09:11:02;96989.13;;;15.71;55.68
72210;BME280;60113;48.762;12.302;2023-05-01T09:13:27;96989.25;;;15.87;57.52
72210;BME280;60113;48.762;12.302;2023-05-01T09:15:53;96985.69;;;15.97;55.25
72210;BME280;60113;48.762;12.302;2023-05-01T09:18:18;96984.59;;;16.16;57.09
72210;BME280;60113;48.762;12.302;2023-05-01T09:20:44;96987.22;;;16.08;55.76
72210;BME280;60113;48.762;12.302;2023-05-01T09:23:10;96992.34;;;16.09;56.58
72210;BME280;60113;48.762;12.302;2023-05-01T09:25:35;96991.91;;;16.22;53.44
72210;BME280;60113;48.762;12.302;2023-05-01T09:28:04;96982.06;;;16.41;55.37
72210;BME280;60113;48.762;12.302;2023-05-01T09:33:12;96984.09;;;16.56;49.15
72210;BME280;60113;48.762;12.302;2023-05-01T09:35:51;96987.09;;;16.78;51.17
72210;BME280;60113;48.762;12.302;2023-05-01T09:38:22;96988.50;;;17.07;55.19
72210;BME280;60113;48.762;12.302;2023-05-01T09:40:48;96982.72;;;17.11;53.21
72210;BME280;60113;48.762;12.302;2023-05-01T09:43:22;96978.00;;;16.80;53.28
72210;BME280;60113;48.762;12.302;2023-05-01T09:46:09;96983.41;;;16.54;46.95
72210;BME280;60113;48.762;12.302;2023-05-01T09:48:36;96976.38;;;16.36;55.39
72210;BME280;60113;48.762;12.302;2023-05-01T09:53:46;96990.22;;;16.13;49.12
72210;BME280;60113;48.762;12.302;2023-05-01T09:56:11;96986.06;;;16.10;52.11
72210;BME280;60113;48.762;12.302;2023-05-01T09:58:37;96977.97;;;15.85;50.23
72210;BME280;60113;48.762;12.302;2023-05-01T10:01:03;96979.47;;;15.61;52.02
72210;BME280;60113;48.762;12.302;2023-05-01T10:03:28;96980.72;;;15.49;53.67
72210;BME280;60113;48.762;12.302;2023-05-01T10:05:54;96988.53;;;15.32;53.10
72210;BME280;60113;48.762;12.302;2023-05-01T10:08:21;96986.16;;;15.21;55.23
72210;BME280;60113;48.762;12.302;2023-05-01T10:10:59;96990.91;;;15.17;51.43
72210;BME280;60113;48.762;12.302;2023-05-01T10:13:25;96986.47;;;15.18;53.71
72210;BME280;60113;48.762;12.302;2023-05-01T10:15:50;96989.47;;;15.23;54.00
72210;BME280;60113;48.762;12.302;2023-05-01T10:18:16;96990.84;;;15.27;54.35
72210;BME280;60113;48.762;12.302;2023-05-01T10:20:42;96992.03;;;15.33;53.24
72210;BME280;60113;48.762;12.302;2023-05-01T10:23:08;96984.75;;;15.35;52.54
72210;BME280;60113;48.762;12.302;2023-05-01T10:25:35;96985.97;;;15.41;52.66
72210;BME280;60113;48.762;12.302;2023-05-01T10:28:02;96985.50;;;15.45;53.64
72210;BME280;60113;48.762;12.302;2023-05-01T10:30:29;96993.50;;;15.54;54.63
72210;BME280;60113;48.762;12.302;2023-05-01T10:32:56;96990.19;;;15.78;54.85
72210;BME280;60113;48.762;12.302;2023-05-01T10:35:28;96986.63;;;15.96;52.62
72210;BME280;60113;48.762;12.302;2023-05-01T10:37:59;96985.38;;;16.00;53.12
72210;BME280;60113;48.762;12.302;2023-05-01T10:43:26;96985.25;;;16.10;52.35
72210;BME280;60113;48.762;12.302;2023-05-01T10:46:38;96982.78;;;16.17;55.58
72210;BME280;60113;48.762;12.302;2023-05-01T10:51:16;96974.75;;;16.35;54.54
72210;BME280;60113;48.762;12.302;2023-05-01T10:53:43;96979.06;;;16.44;53.57
72210;BME280;60113;48.762;12.302;2023-05-01T10:58:55;96974.63;;;16.53;50.58
72210;BME280;60113;48.762;12.302;2023-05-01T11:03:57;96975.19;;;16.82;52.23
72210;BME280;60113;48.762;12.302;2023-05-01T11:06:23;96971.19;;;16.78;52.47
72210;BME280;60113;48.762;12.302;2023-05-01T11:08:49;96972.47;;;16.57;51.01
72210;BME280;60113;48.762;12.302;2023-05-01T11:14:06;96968.22;;;16.72;50.61
72210;BME280;60113;48.762;12.302;2023-05-01T11:18:58;96959.44;;;16.97;54.25
72210;BME280;60113;48.762;12.302;2023-05-01T11:21:30;96965.59;;;16.97;50.88
72210;BME280;60113;48.762;12.302;2023-05-01T11:24:02;96962.25;;;16.95;53.43
72210;BME280;60113;48.762;12.302;2023-05-01T11:26:28;96961.25;;;16.80;54.09
72210;BME280;60113;48.762;12.302;2023-05-01T11:28:56;96958.28;;;16.91;52.12
72210;BME280;60113;48.762;12.302;2023-05-01T11:31:24;96961.25;;;16.96;54.36
72210;BME280;60113;48.762;12.302;2023-05-01T11:33:49;96951.34;;;17.07;54.30
72210;BME280;60113;48.762;12.302;2023-05-01T11:36:15;96956.81;;;17.22;53.45
72210;BME280;60113;48.762;12.302;2023-05-01T11:38:54;96953.34;;;17.21;48.49
72210;BME280;60113;48.762;12.302;2023-05-01T11:41:24;96956.66;;;17.32;55.57
72210;BME280;60113;48.762;12.302;2023-05-01T11:43:56;96952.16;;;17.41;51.01
72210;BME280;60113;48.762;12.302;2023-05-01T11:46:29;96957.16;;;17.44;50.51
72210;BME280;60113;48.762;12.302;2023-05-01T11:48:56;96959.63;;;17.45;55.33
72210;BME280;60113;48.762;12.302;2023-05-01T11:51:22;96960.63;;;17.61;55.25
72210;BME280;60113;48.762;12.302;2023-05-01T11:54:08;96954.06;;;17.80;53.68
72210;BME280;60113;48.762;12.302;2023-05-01T11:56:35;96948.06;;;17.86;54.74
72210;BME280;60113;48.762;12.302;2023-05-01T11:59:28;96947.28;;;17.69;48.48
72210;BME280;60113;48.762;12.302;2023-05-01T12:01:54;96950.28;;;17.66;47.64
72210;BME280;60113;48.762;12.302;2023-05-01T12:04:24;96944.00;;;17.67;53.14
72210;BME280;60113;48.762;12.302;2023-05-01T12:06:52;96945.63;;;17.77;54.81
72210;BME280;60113;48.762;12.302;2023-05-01T12:09:22;96941.78;;;17.87;52.52
72210;BME280;60113;48.762;12.302;2023-05-01T12:11:50;96944.78;;;17.84;53.88
72210;BME280;60113;48.762;12.302;2023-05-01T12:14:16;96941.97;;;17.69;52.15
72210;BME280;60113;48.762;12.302;2023-05-01T12:16:42;96945.69;;;17.52;53.15
72210;BME280;60113;48.762;12.302;2023-05-01T12:19:09;96946.38;;;17.29;54.70
72210;BME280;60113;48.762;12.302;2023-05-01T12:21:36;96944.22;;;17.24;55.62
72210;BME280;60113;48.762;12.302;2023-05-01T12:24:15;96949.84;;;17.29;50.67
72210;BME280;60113;48.762;12.302;2023-05-01T12:26:43;96944.53;;;17.29;54.22
72210;BME280;60113;48.762;12.302;2023-05-01T12:29:09;96944.41;;;17.22;55.76
72210;BME280;60113;48.762;12.302;2023-05-01T12:31:36;96942.72;;;17.21;55.41
72210;BME280;60113;48.762;12.302;2023-05-01T12:34:09;96938.75;;;17.26;54.74
72210;BME280;60113;48.762;12.302;2023-05-01T12:36:36;96933.78;;;17.14;53.47
72210;BME280;60113;48.762;12.302;2023-05-01T12:39:09;96938.56;;;17.02;52.86
72210;BME280;60113;48.762;12.302;2023-05-01T12:41:40;96931.91;;;16.98;54.53
72210;BME280;60113;48.762;12.302;2023-05-01T12:47:04;96931.44;;;16.94;53.39
72210;BME280;60113;48.762;12.302;2023-05-01T12:49:31;96932.56;;;16.75;53.53
72210;BME280;60113;48.762;12.302;2023-05-01T12:52:00;96931.88;;;16.65;53.88
72210;BME280;60113;48.762;12.302;2023-05-01T12:54:29;96937.00;;;16.58;53.58
72210;BME280;60113;48.762;12.302;2023-05-01T12:57:12;96928.72;;;16.61;51.28
72210;BME280;60113;48.762;12.302;2023-05-01T12:59:40;96928.72;;;16.61;53.31
72210;BME280;60113;48.762;12.302;2023-05-01T13:02:07;96926.09;;;16.69;55.67
72210;BME280;60113;48.762;12.302;2023-05-01T13:04:35;96932.88;;;16.72;51.95
72210;BME280;60113;48.762;12.302;2023-05-01T13:07:00;96929.22;;;16.73;54.90
72210;BME280;60113;48.762;12.302;2023-05-01T13:09:28;96920.78;;;16.78;53.78
72210;BME280;60113;48.762;12.302;2023-05-01T13:12:01;96928.25;;;16.82;53.75
72210;BME280;60113;48.762;12.302;2023-05-01T13:14:45;96920.63;;;16.87;51.75
72210;BME280;60113;48.762;12.302;2023-05-01T13:17:11;96921.63;;;16.95;55.38
72210;BME280;60113;48.762;12.302;2023-05-01T13:19:37;96930.75;;;16.75;53.64
72210;BME280;60113;48.762;12.302;2023-05-01T13:22:06;96928.41;;;16.56;52.46
72210;BME280;60113;48.762;12.302;2023-05-01T13:24:41;96938.81;;;16.49;52.67
72210;BME280;60113;48.762;12.302;2023-05-01T13:27:10;96933.66;;;16.31;53.75
72210;BME280;60113;48.762;12.302;2023-05-01T13:29:37;96922.31;;;16.20;53.25
72210;BME280;60113;48.762;12.302;2023-05-01T13:32:03;96924.97;;;16.12;55.73
72210;BME280;60113;48.762;12.302;2023-05-01T13:34:33;96930.06;;;16.05;54.71